Time;durP1;ratioP1;P1;durP2;ratioP2;P2;SDS_P1;SDS_P2;PMS_P1;PMS_P2;Temp;Humidity;BMP_temperature;BMP_pressure;BME280_temperature;BME280_humidity;BME280_pressure;Samples;Min_cycle;Max_cycle;Signal;HPM_P1;HPM_P2
2024/03/06 00:00:12;;;;;;;3.25;1.95;;;;;;;;;;518272;28;1347;-76
2024/03/06 00:00:28;;;;;;;2.90;1.85;;;;;;;;;;517120;28;1914;-76
2024/03/06 00:00:43;;;;;;;2.50;1.80;;;;;;;;;;519363;28;1432;-76
2024/03/06 00:00:58;;;;;;;2.57;1.90;;;;;;;;;;518973;28;1444;-76
2024/03/06 00:01:14;;;;;;;2.60;1.90;;;;;;;;;;519205;28;1385;-76
2024/03/06 00:01:29;;;;;;;2.57;1.73;;;;;;;;;;518724;28;1453;-76
2024/03/06 00:01:44;;;;;;;2.60;1.80;;;;;;;;;;518054;28;1515;-76
2024/03/06 00:02:00;;;;;;;2.95;1.98;;;;;;;;;;516739;28;1871;-76
2024/03/06 00:02:15;;;;;;;2.83;2.00;;;;;;;;;;516009;28;1188;-77
2024/03/06 00:02:30;;;;;;;2.70;1.83;;;;;;;;;;517666;28;1435;-76
2024/03/06 00:02:45;;;;;;;3.60;1.80;;;;;;;;;;516236;28;1428;-76
2024/03/06 00:03:01;;;;;;;3.87;1.80;;;;;;;;;;515338;28;1108;-76
2024/03/06 00:03:16;;;;;;;3.67;1.90;;;;;;;;;;516441;28;1373;-76
2024/03/06 00:03:32;;;;;;;3.50;1.98;;;;;;;;;;516488;28;1891;-75
2024/03/06 00:03:47;;;;;;;3.63;2.00;;;;;;;;;;517747;28;1428;-76
2024/03/06 00:04:03;;;;;;;4.20;1.90;;;;;;;;;;519440;28;1384;-76
2024/03/06 00:04:19;;;;;;;3.25;1.90;;;;;;;;;;519122;28;1494;-76
2024/03/06 00:04:34;;;;;;;3.23;1.97;;;;;;;;;;519124;28;2005;-76
2024/03/06 00:04:50;;;;;;;3.67;2.00;;;;;;;;;;519127;28;1419;-76
2024/03/06 00:05:07;;;;;;;3.03;1.90;;;;;;;;;;519323;28;1396;-76
2024/03/06 00:05:23;;;;;;;4.00;1.98;;;;;;;;;;520844;28;1365;-76
2024/03/06 00:05:38;;;;;;;4.37;2.13;;;;;;;;;;521345;28;1459;-76
2024/03/06 00:05:53;;;;;;;3.60;2.10;;;;;;;;;;520443;28;1372;-78
2024/03/06 00:06:09;;;;;;;4.18;2.00;;;;;;;;;;520036;28;1455;-76
2024/03/06 00:06:24;;;;;;;3.93;1.97;;;;;;;;;;521233;28;1408;-75
2024/03/06 00:06:39;;;;;;;3.90;1.92;;;;;;;;;;520748;28;1407;-75
2024/03/06 00:06:55;;;;;;;3.70;1.97;;;;;;;;;;520567;28;2195;-76
2024/03/06 00:07:10;;;;;;;3.53;2.00;;;;;;;;;;520540;28;1558;-76
2024/03/06 00:07:26;;;;;;;3.58;2.00;;;;;;;;;;519291;28;1373;-76
2024/03/06 00:07:41;;;;;;;3.07;1.93;;;;;;;;;;519300;28;1210;-76
2024/03/06 00:07:56;;;;;;;3.28;1.98;;;;;;;;;;517962;28;1373;-75
2024/03/06 00:08:12;;;;;;;3.13;1.93;;;;;;;;;;515622;28;1157;-75
2024/03/06 00:08:28;;;;;;;3.17;1.93;;;;;;;;;;514751;28;2175;-75
2024/03/06 00:08:43;;;;;;;3.05;1.80;;;;;;;;;;515192;28;1394;-75
2024/03/06 00:08:59;;;;;;;3.03;1.70;;;;;;;;;;512922;28;1446;-75
2024/03/06 00:09:14;;;;;;;2.90;1.70;;;;;;;;;;511602;28;1389;-75
2024/03/06 00:09:30;;;;;;;2.50;1.60;;;;;;;;;;513251;28;1272;-75
2024/03/06 00:09:45;;;;;;;3.03;1.60;;;;;;;;;;513212;28;1391;-75
2024/03/06 00:10:00;;;;;;;3.13;1.70;;;;;;;;;;512789;28;1831;-75
2024/03/06 00:10:16;;;;;;;3.47;1.80;;;;;;;;;;515154;28;1410;-76
2024/03/06 00:10:31;;;;;;;3.97;1.80;;;;;;;;;;515187;28;1431;-76
2024/03/06 00:10:47;;;;;;;3.60;1.70;;;;;;;;;;515819;28;1362;-75
2024/03/06 00:11:02;;;;;;;4.03;1.63;;;;;;;;;;515315;28;1319;-75
2024/03/06 00:11:17;;;;;;;3.80;1.70;;;;;;;;;;515288;28;1355;-75
2024/03/06 00:11:35;;;;;;;3.07;1.77;;;;;;;;;;515279;28;1892;-76
2024/03/06 00:11:52;;;;;;;2.75;1.80;;;;;;;;;;515848;28;1450;-75
2024/03/06 00:12:07;;;;;;;3.20;1.90;;;;;;;;;;517974;28;1120;-75
2024/03/06 00:12:23;;;;;;;3.53;1.83;;;;;;;;;;517165;28;1425;-75
2024/03/06 00:12:38;;;;;;;3.57;1.70;;;;;;;;;;517329;28;1455;-75
2024/03/06 00:12:53;;;;;;;3.92;1.80;;;;;;;;;;517229;28;1421;-75
2024/03/06 00:13:08;;;;;;;3.20;1.90;;;;;;;;;;517950;28;1346;-76
2024/03/06 00:13:24;;;;;;;2.70;1.80;;;;;;;;;;516736;28;2018;-75
2024/03/06 00:13:39;;;;;;;3.00;1.77;;;;;;;;;;517731;28;1247;-75
2024/03/06 00:13:54;;;;;;;3.40;1.90;;;;;;;;;;519116;28;1382;-75
2024/03/06 00:14:12;;;;;;;3.33;1.83;;;;;;;;;;517558;28;1441;-75
2024/03/06 00:14:27;;;;;;;3.03;1.67;;;;;;;;;;519414;28;1349;-75
2024/03/06 00:14:43;;;;;;;2.60;1.70;;;;;;;;;;519220;28;1262;-75
2024/03/06 00:14:58;;;;;;;3.00;1.90;;;;;;;;;;518554;28;2192;-75
2024/03/06 00:15:13;;;;;;;3.88;1.95;;;;;;;;;;515242;28;1236;-75
2024/03/06 00:15:28;;;;;;;3.53;1.73;;;;;;;;;;514658;28;1390;-76
2024/03/06 00:15:45;;;;;;;2.80;1.73;;;;;;;;;;515287;28;1424;-75
2024/03/06 00:16:00;;;;;;;3.40;1.95;;;;;;;;;;514945;28;1401;-75
2024/03/06 00:16:16;;;;;;;3.73;2.03;;;;;;;;;;516725;28;1479;-75
2024/03/06 00:16:32;;;;;;;3.08;1.88;;;;;;;;;;516482;28;1871;-75
2024/03/06 00:16:50;;;;;;;3.08;1.80;;;;;;;;;;516005;28;1409;-75
2024/03/06 00:17:06;;;;;;;3.20;1.88;;;;;;;;;;518112;28;883;-75
2024/03/06 00:17:21;;;;;;;3.40;1.90;;;;;;;;;;519363;28;1435;-75
2024/03/06 00:17:37;;;;;;;3.27;1.90;;;;;;;;;;519100;28;1254;-76
2024/03/06 00:17:52;;;;;;;2.88;1.85;;;;;;;;;;519233;28;1506;-76
2024/03/06 00:18:08;;;;;;;2.87;1.90;;;;;;;;;;515823;28;1172;-75
2024/03/06 00:18:23;;;;;;;3.00;1.83;;;;;;;;;;516664;28;2184;-75
2024/03/06 00:18:38;;;;;;;3.20;1.90;;;;;;;;;;515911;28;1399;-76
2024/03/06 00:18:54;;;;;;;2.90;1.90;;;;;;;;;;515817;28;1306;-75
2024/03/06 00:19:09;;;;;;;2.67;1.90;;;;;;;;;;515324;28;1411;-75
2024/03/06 00:19:24;;;;;;;2.77;1.90;;;;;;;;;;515094;28;1192;-75
2024/03/06 00:19:40;;;;;;;2.87;1.80;;;;;;;;;;518262;28;1416;-75
2024/03/06 00:19:55;;;;;;;3.08;2.00;;;;;;;;;;517946;28;2173;-75
2024/03/06 00:20:11;;;;;;;3.03;2.10;;;;;;;;;;519229;28;1193;-76
2024/03/06 00:20:26;;;;;;;2.50;1.92;;;;;;;;;;519314;28;1376;-76
2024/03/06 00:20:42;;;;;;;2.93;1.97;;;;;;;;;;519575;28;1348;-75
2024/03/06 00:20:58;;;;;;;3.30;1.85;;;;;;;;;;515767;28;1258;-75
2024/03/06 00:21:14;;;;;;;3.80;1.90;;;;;;;;;;518921;28;1350;-75
2024/03/06 00:21:30;;;;;;;4.25;2.05;;;;;;;;;;518492;28;2112;-75
2024/03/06 00:21:45;;;;;;;3.40;1.90;;;;;;;;;;518341;28;1361;-75
2024/03/06 00:22:03;;;;;;;2.10;1.60;;;;;;;;;;516436;28;1425;-76
2024/03/06 00:22:18;;;;;;;2.20;1.65;;;;;;;;;;516064;28;1523;-75
2024/03/06 00:22:34;;;;;;;2.50;1.70;;;;;;;;;;516171;28;1453;-75
2024/03/06 00:22:49;;;;;;;3.73;1.90;;;;;;;;;;516822;28;1384;-76
2024/03/06 00:23:05;;;;;;;4.22;2.10;;;;;;;;;;515967;28;1634;-76
2024/03/06 00:23:20;;;;;;;3.23;1.93;;;;;;;;;;516823;28;1451;-75
2024/03/06 00:23:37;;;;;;;2.90;1.80;;;;;;;;;;517049;28;1455;-76
2024/03/06 00:23:52;;;;;;;2.80;1.88;;;;;;;;;;518328;28;1464;-75
2024/03/06 00:24:07;;;;;;;2.77;1.90;;;;;;;;;;517956;28;1250;-75
2024/03/06 00:24:23;;;;;;;2.63;1.77;;;;;;;;;;519066;28;1420;-75
2024/03/06 00:24:38;;;;;;;2.87;1.83;;;;;;;;;;519700;28;1965;-75
2024/03/06 00:24:54;;;;;;;4.07;1.90;;;;;;;;;;518776;28;1489;-76
2024/03/06 00:25:09;;;;;;;4.22;1.90;;;;;;;;;;517940;28;1413;-76
2024/03/06 00:25:25;;;;;;;3.10;1.83;;;;;;;;;;516640;28;1460;-75
2024/03/06 00:25:40;;;;;;;3.80;1.93;;;;;;;;;;516948;28;1441;-75
2024/03/06 00:25:56;;;;;;;5.25;2.00;;;;;;;;;;516344;28;1429;-76
2024/03/06 00:26:12;;;;;;;4.10;2.03;;;;;;;;;;516841;28;1679;-75
2024/03/06 00:26:27;;;;;;;3.20;2.03;;;;;;;;;;515536;28;1291;-76
2024/03/06 00:26:47;;;;;;;3.43;2.13;;;;;;;;;;518097;28;1279;-75
2024/03/06 00:27:04;;;;;;;4.25;2.10;;;;;;;;;;517873;28;1479;-75
2024/03/06 00:27:19;;;;;;;4.10;2.10;;;;;;;;;;517235;28;1424;-76
2024/03/06 00:27:34;;;;;;;3.92;2.03;;;;;;;;;;517079;28;1330;-75
2024/03/06 00:27:50;;;;;;;3.73;2.00;;;;;;;;;;517622;28;1413;-75
2024/03/06 00:28:06;;;;;;;3.33;2.00;;;;;;;;;;516807;28;1968;-76
2024/03/06 00:28:21;;;;;;;3.75;2.00;;;;;;;;;;516402;28;1430;-76
2024/03/06 00:28:36;;;;;;;3.43;2.00;;;;;;;;;;517283;28;1366;-76
2024/03/06 00:28:51;;;;;;;2.60;1.95;;;;;;;;;;517378;28;1432;-76
2024/03/06 00:29:07;;;;;;;2.87;1.90;;;;;;;;;;517456;28;1151;-75
2024/03/06 00:29:22;;;;;;;3.67;2.20;;;;;;;;;;519400;28;1384;-75
2024/03/06 00:29:38;;;;;;;3.88;2.35;;;;;;;;;;521147;28;3275;-76
2024/03/06 00:29:53;;;;;;;3.53;2.10;;;;;;;;;;521223;28;1565;-75
2024/03/06 00:30:09;;;;;;;3.70;2.17;;;;;;;;;;521638;28;1432;-76
2024/03/06 00:30:24;;;;;;;4.50;2.20;;;;;;;;;;520687;28;1486;-76
2024/03/06 00:30:39;;;;;;;4.38;2.10;;;;;;;;;;520148;28;1419;-75
2024/03/06 00:30:55;;;;;;;4.17;2.13;;;;;;;;;;520920;28;1506;-75
2024/03/06 00:31:10;;;;;;;3.55;2.03;;;;;;;;;;520791;28;1468;-76
2024/03/06 00:31:26;;;;;;;3.60;2.00;;;;;;;;;;520487;28;1316;-75
2024/03/06 00:31:45;;;;;;;3.67;1.87;;;;;;;;;;520423;28;1451;-75
2024/03/06 00:32:00;;;;;;;3.55;1.85;;;;;;;;;;520465;28;1479;-75
2024/03/06 00:32:16;;;;;;;4.03;2.10;;;;;;;;;;520394;28;1503;-75
2024/03/06 00:32:31;;;;;;;3.53;2.10;;;;;;;;;;520991;28;1321;-75
2024/03/06 00:32:46;;;;;;;2.50;1.80;;;;;;;;;;519002;28;1906;-75
2024/03/06 00:33:02;;;;;;;2.27;1.77;;;;;;;;;;519187;28;1144;-75
2024/03/06 00:33:17;;;;;;;3.00;1.90;;;;;;;;;;518058;28;1421;-75
2024/03/06 00:33:32;;;;;;;4.20;2.10;;;;;;;;;;517908;28;1358;-75
2024/03/06 00:33:48;;;;;;;3.87;2.03;;;;;;;;;;516224;28;1362;-75
2024/03/06 00:34:03;;;;;;;3.00;1.95;;;;;;;;;;515615;28;1426;-75
2024/03/06 00:34:19;;;;;;;3.13;2.00;;;;;;;;;;516678;28;1418;-75
2024/03/06 00:34:34;;;;;;;3.30;2.00;;;;;;;;;;517494;28;961;-76
2024/03/06 00:34:49;;;;;;;2.70;1.98;;;;;;;;;;519512;28;1001;-76
2024/03/06 00:35:05;;;;;;;2.57;1.90;;;;;;;;;;515144;28;1199;-76
2024/03/06 00:35:20;;;;;;;2.33;1.70;;;;;;;;;;515124;28;865;-76
2024/03/06 00:35:36;;;;;;;2.40;1.70;;;;;;;;;;515559;28;1044;-75
2024/03/06 00:35:51;;;;;;;2.53;1.80;;;;;;;;;;514965;28;1223;-75
2024/03/06 00:36:07;;;;;;;3.80;2.10;;;;;;;;;;515222;28;1178;-78
2024/03/06 00:36:22;;;;;;;4.20;2.30;;;;;;;;;;517290;28;1234;-75
2024/03/06 00:36:38;;;;;;;3.10;2.10;;;;;;;;;;517180;28;1367;-75
2024/03/06 00:36:54;;;;;;;3.50;1.87;;;;;;;;;;515212;28;1248;-75
2024/03/06 00:37:09;;;;;;;3.85;1.80;;;;;;;;;;517108;28;882;-76
2024/03/06 00:37:25;;;;;;;3.80;2.00;;;;;;;;;;517199;28;969;-76
2024/03/06 00:37:40;;;;;;;4.60;2.20;;;;;;;;;;517741;28;871;-76
2024/03/06 00:37:55;;;;;;;4.03;2.00;;;;;;;;;;518726;28;1017;-76
2024/03/06 00:38:11;;;;;;;2.60;1.70;;;;;;;;;;518841;28;1060;-75
2024/03/06 00:38:26;;;;;;;2.65;1.70;;;;;;;;;;516730;28;1330;-75
2024/03/06 00:38:43;;;;;;;2.60;1.87;;;;;;;;;;517681;28;854;-75
2024/03/06 00:38:58;;;;;;;3.10;1.90;;;;;;;;;;519197;28;1158;-75
2024/03/06 00:39:14;;;;;;;3.60;2.00;;;;;;;;;;517327;28;937;-75
2024/03/06 00:39:30;;;;;;;3.07;2.00;;;;;;;;;;515086;28;1195;-76
2024/03/06 00:39:45;;;;;;;3.35;1.92;;;;;;;;;;515292;28;1320;-75
2024/03/06 00:40:00;;;;;;;3.50;2.00;;;;;;;;;;515150;28;1173;-76
2024/03/06 00:40:16;;;;;;;3.17;2.07;;;;;;;;;;517670;28;893;-75
2024/03/06 00:40:31;;;;;;;3.13;1.95;;;;;;;;;;519258;28;822;-76
2024/03/06 00:40:47;;;;;;;3.45;1.90;;;;;;;;;;519447;28;913;-75
2024/03/06 00:41:03;;;;;;;3.60;2.00;;;;;;;;;;517108;28;1204;-76
2024/03/06 00:41:19;;;;;;;3.00;1.95;;;;;;;;;;517828;28;925;-76
2024/03/06 00:41:35;;;;;;;2.65;1.90;;;;;;;;;;519061;28;842;-75
2024/03/06 00:41:50;;;;;;;3.20;2.00;;;;;;;;;;518982;28;1188;-75
2024/03/06 00:42:08;;;;;;;3.27;2.00;;;;;;;;;;517440;28;1294;-75
2024/03/06 00:42:24;;;;;;;3.03;1.90;;;;;;;;;;519057;28;1356;-76
2024/03/06 00:42:41;;;;;;;2.83;1.80;;;;;;;;;;519395;28;921;-76
2024/03/06 00:42:56;;;;;;;2.88;2.00;;;;;;;;;;519924;28;1527;-76
2024/03/06 00:43:12;;;;;;;2.92;2.10;;;;;;;;;;521149;28;1119;-75
2024/03/06 00:43:27;;;;;;;3.30;2.10;;;;;;;;;;521006;28;1294;-75
2024/03/06 00:43:43;;;;;;;3.73;2.13;;;;;;;;;;519276;28;1246;-75
2024/03/06 00:43:58;;;;;;;4.15;2.20;;;;;;;;;;516133;28;1325;-75
2024/03/06 00:44:15;;;;;;;3.93;2.30;;;;;;;;;;515692;28;1177;-75
2024/03/06 00:44:31;;;;;;;2.95;1.92;;;;;;;;;;517161;28;1115;-75
2024/03/06 00:44:46;;;;;;;2.50;1.80;;;;;;;;;;516334;28;1977;-75
2024/03/06 00:45:02;;;;;;;2.40;1.87;;;;;;;;;;513277;28;1070;-76
2024/03/06 00:45:17;;;;;;;2.65;1.85;;;;;;;;;;513284;28;1002;-75
2024/03/06 00:45:33;;;;;;;3.35;2.00;;;;;;;;;;513752;28;1211;-75
2024/03/06 00:45:48;;;;;;;3.73;2.03;;;;;;;;;;515804;28;898;-75
2024/03/06 00:46:03;;;;;;;4.43;2.20;;;;;;;;;;517070;28;1029;-75
2024/03/06 00:46:19;;;;;;;4.40;2.20;;;;;;;;;;517017;28;1407;-75
2024/03/06 00:46:34;;;;;;;3.17;1.90;;;;;;;;;;517508;28;1296;-77
2024/03/06 00:46:49;;;;;;;2.93;1.70;;;;;;;;;;517321;28;1222;-75
2024/03/06 00:47:05;;;;;;;3.60;1.83;;;;;;;;;;517043;28;1224;-75
2024/03/06 00:47:21;;;;;;;3.90;1.97;;;;;;;;;;517364;28;1223;-76
2024/03/06 00:47:37;;;;;;;3.47;1.90;;;;;;;;;;519811;28;1129;-75
2024/03/06 00:47:52;;;;;;;2.90;1.80;;;;;;;;;;519290;28;1151;-75
2024/03/06 00:48:07;;;;;;;2.53;1.77;;;;;;;;;;519146;28;1203;-75
2024/03/06 00:48:23;;;;;;;3.00;2.00;;;;;;;;;;518778;28;1189;-75
2024/03/06 00:48:41;;;;;;;3.10;2.00;;;;;;;;;;519332;28;1486;-75
2024/03/06 00:48:56;;;;;;;2.88;1.90;;;;;;;;;;521197;28;1353;-75
2024/03/06 00:49:11;;;;;;;3.33;1.90;;;;;;;;;;519512;28;1031;-75
2024/03/06 00:49:27;;;;;;;3.25;1.95;;;;;;;;;;519385;28;901;-76
2024/03/06 00:49:42;;;;;;;2.90;2.00;;;;;;;;;;518902;28;890;-75
2024/03/06 00:49:57;;;;;;;3.20;2.00;;;;;;;;;;517861;28;1026;-75
2024/03/06 00:50:13;;;;;;;3.40;1.90;;;;;;;;;;519487;28;827;-75
2024/03/06 00:50:28;;;;;;;3.50;1.87;;;;;;;;;;519149;28;1217;-75
2024/03/06 00:50:43;;;;;;;3.07;1.90;;;;;;;;;;519010;28;1177;-76
2024/03/06 00:50:58;;;;;;;2.72;1.98;;;;;;;;;;517964;28;1137;-76
2024/03/06 00:51:14;;;;;;;3.43;1.93;;;;;;;;;;517325;28;1009;-75
2024/03/06 00:51:30;;;;;;;3.40;1.90;;;;;;;;;;515190;28;1384;-75
2024/03/06 00:51:45;;;;;;;2.67;1.80;;;;;;;;;;515140;28;882;-75
2024/03/06 00:52:01;;;;;;;2.83;1.80;;;;;;;;;;515842;28;1388;-75
2024/03/06 00:52:16;;;;;;;3.80;2.00;;;;;;;;;;519041;28;1692;-75
2024/03/06 00:52:31;;;;;;;3.45;1.95;;;;;;;;;;519126;28;823;-75
2024/03/06 00:52:47;;;;;;;2.87;1.80;;;;;;;;;;519335;28;882;-75
2024/03/06 00:53:04;;;;;;;3.10;1.87;;;;;;;;;;519055;28;1049;-75
2024/03/06 00:53:19;;;;;;;3.33;2.00;;;;;;;;;;519065;28;834;-75
2024/03/06 00:53:35;;;;;;;3.50;2.00;;;;;;;;;;519066;28;1215;-76
2024/03/06 00:53:50;;;;;;;3.67;1.95;;;;;;;;;;517186;28;1225;-75
2024/03/06 00:54:05;;;;;;;3.53;2.17;;;;;;;;;;517313;28;1372;-75
2024/03/06 00:54:21;;;;;;;3.60;2.07;;;;;;;;;;517113;28;1435;-75
2024/03/06 00:54:36;;;;;;;3.43;1.90;;;;;;;;;;515180;28;1550;-76
2024/03/06 00:54:51;;;;;;;3.00;1.85;;;;;;;;;;516535;28;1634;-75
2024/03/06 00:55:07;;;;;;;3.13;1.90;;;;;;;;;;513070;28;1379;-75
2024/03/06 00:55:22;;;;;;;3.15;2.00;;;;;;;;;;512746;28;1933;-75
2024/03/06 00:55:38;;;;;;;3.07;1.93;;;;;;;;;;514360;28;2142;-75
2024/03/06 00:55:53;;;;;;;2.70;1.83;;;;;;;;;;514442;28;2053;-75
2024/03/06 00:56:09;;;;;;;2.58;1.80;;;;;;;;;;514163;28;1374;-75
2024/03/06 00:56:24;;;;;;;2.95;1.90;;;;;;;;;;510467;29;1506;-75
2024/03/06 00:56:40;;;;;;;2.90;1.90;;;;;;;;;;511202;28;1774;-75
2024/03/06 00:56:55;;;;;;;2.87;2.00;;;;;;;;;;511537;28;1846;-75
2024/03/06 00:57:10;;;;;;;3.80;2.00;;;;;;;;;;514117;28;1793;-75
2024/03/06 00:57:25;;;;;;;3.67;1.93;;;;;;;;;;514672;28;1622;-75
2024/03/06 00:57:41;;;;;;;4.27;1.90;;;;;;;;;;515034;28;2271;-75
2024/03/06 00:57:56;;;;;;;4.85;2.00;;;;;;;;;;515787;28;1807;-75
2024/03/06 00:58:12;;;;;;;3.90;2.10;;;;;;;;;;516667;28;1828;-75
2024/03/06 00:58:27;;;;;;;3.13;2.07;;;;;;;;;;517454;28;1140;-75
2024/03/06 00:58:42;;;;;;;2.40;1.73;;;;;;;;;;518584;28;1498;-75
2024/03/06 00:58:58;;;;;;;3.07;1.80;;;;;;;;;;519053;28;1529;-75
2024/03/06 00:59:13;;;;;;;3.22;1.90;;;;;;;;;;519181;28;1247;-75
2024/03/06 00:59:28;;;;;;;3.27;1.97;;;;;;;;;;520206;28;1505;-75
2024/03/06 00:59:44;;;;;;;3.60;2.00;;;;;;;;;;518068;28;1403;-75
2024/03/06 00:59:59;;;;;;;2.88;1.90;;;;;;;;;;517945;28;1246;-75
2024/03/06 01:00:15;;;;;;;3.00;1.90;;;;;;;;;;517167;28;1626;-75
2024/03/06 01:00:31;;;;;;;3.33;1.90;;;;;;;;;;517817;28;1231;-75
2024/03/06 01:00:46;;;;;;;3.20;1.90;;;;;;;;;;518515;28;1150;-75
2024/03/06 01:01:02;;;;;;;3.10;1.90;;;;;;;;;;518659;28;1439;-75
2024/03/06 01:01:18;;;;;;;3.20;2.03;;;;;;;;;;517723;28;1419;-75
2024/03/06 01:01:34;;;;;;;3.10;1.98;;;;;;;;;;517187;28;1506;-74
2024/03/06 01:01:49;;;;;;;3.40;2.00;;;;;;;;;;516928;28;1486;-75
2024/03/06 01:02:06;;;;;;;3.60;2.00;;;;;;;;;;519144;28;1550;-75
2024/03/06 01:02:21;;;;;;;5.07;1.98;;;;;;;;;;518996;28;1517;-75
2024/03/06 01:02:40;;;;;;;5.73;1.87;;;;;;;;;;520676;28;1371;-75
2024/03/06 01:02:55;;;;;;;3.53;1.70;;;;;;;;;;520697;28;1601;-75
2024/03/06 01:03:11;;;;;;;2.83;1.90;;;;;;;;;;521052;28;962;-75
2024/03/06 01:03:26;;;;;;;3.60;1.95;;;;;;;;;;521720;28;1720;-75
2024/03/06 01:03:41;;;;;;;3.33;1.80;;;;;;;;;;520871;28;1486;-75
2024/03/06 01:03:57;;;;;;;3.00;1.80;;;;;;;;;;518979;28;1566;-75
2024/03/06 01:04:12;;;;;;;3.70;1.90;;;;;;;;;;518603;28;1248;-75
2024/03/06 01:04:27;;;;;;;4.13;2.00;;;;;;;;;;519049;28;1491;-75
2024/03/06 01:04:42;;;;;;;4.10;1.90;;;;;;;;;;519892;28;1906;-75
2024/03/06 01:04:58;;;;;;;3.45;1.88;;;;;;;;;;519933;28;1483;-75
2024/03/06 01:05:13;;;;;;;2.63;1.90;;;;;;;;;;517484;28;1282;-75
2024/03/06 01:05:28;;;;;;;2.53;1.93;;;;;;;;;;516905;28;1504;-75
2024/03/06 01:05:45;;;;;;;3.55;2.00;;;;;;;;;;518717;28;1412;-75
2024/03/06 01:06:00;;;;;;;3.45;1.88;;;;;;;;;;519911;28;1478;-74
2024/03/06 01:06:15;;;;;;;2.87;1.80;;;;;;;;;;520171;28;1594;-75
2024/03/06 01:06:31;;;;;;;3.47;1.83;;;;;;;;;;517790;28;1554;-75
2024/03/06 01:06:46;;;;;;;3.77;1.97;;;;;;;;;;519232;28;1666;-76
2024/03/06 01:07:01;;;;;;;4.10;2.10;;;;;;;;;;518796;28;1474;-75
2024/03/06 01:07:17;;;;;;;3.92;2.15;;;;;;;;;;520257;28;1286;-75
2024/03/06 01:07:34;;;;;;;3.20;1.90;;;;;;;;;;517328;28;1234;-76
2024/03/06 01:07:49;;;;;;;3.60;2.00;;;;;;;;;;518594;28;1482;-75
2024/03/06 01:08:05;;;;;;;4.20;2.20;;;;;;;;;;518046;28;1726;-75
2024/03/06 01:08:24;;;;;;;3.43;2.10;;;;;;;;;;519835;28;1546;-75
2024/03/06 01:08:40;;;;;;;3.53;2.00;;;;;;;;;;518866;28;1435;-75
2024/03/06 01:08:56;;;;;;;3.67;2.00;;;;;;;;;;516525;28;1486;-75
2024/03/06 01:09:12;;;;;;;3.90;2.20;;;;;;;;;;519836;28;1338;-75
2024/03/06 01:09:27;;;;;;;3.73;2.17;;;;;;;;;;519627;28;1470;-76
2024/03/06 01:09:42;;;;;;;2.85;1.90;;;;;;;;;;519290;28;1201;-75
2024/03/06 01:09:59;;;;;;;2.33;1.87;;;;;;;;;;518864;28;1297;-75
2024/03/06 01:10:14;;;;;;;2.92;1.90;;;;;;;;;;518860;28;1532;-75
2024/03/06 01:10:30;;;;;;;3.33;1.83;;;;;;;;;;520098;28;1629;-75
2024/03/06 01:10:46;;;;;;;3.25;1.80;;;;;;;;;;519248;28;1425;-75
2024/03/06 01:11:01;;;;;;;3.42;1.83;;;;;;;;;;519881;28;1409;-75
2024/03/06 01:11:17;;;;;;;2.87;1.80;;;;;;;;;;519580;28;1450;-75
2024/03/06 01:11:32;;;;;;;2.67;1.90;;;;;;;;;;518709;28;1428;-78
2024/03/06 01:11:47;;;;;;;2.70;2.00;;;;;;;;;;519042;28;1223;-75
2024/03/06 01:12:03;;;;;;;3.13;2.00;;;;;;;;;;518287;28;1452;-75
2024/03/06 01:12:18;;;;;;;4.60;2.03;;;;;;;;;;520218;28;1184;-75
2024/03/06 01:12:34;;;;;;;4.53;1.90;;;;;;;;;;517896;28;1560;-75
2024/03/06 01:12:49;;;;;;;3.47;1.90;;;;;;;;;;517994;28;1492;-75
2024/03/06 01:13:05;;;;;;;3.67;1.80;;;;;;;;;;517843;28;1381;-75
2024/03/06 01:13:20;;;;;;;3.67;1.93;;;;;;;;;;516670;28;1507;-75
2024/03/06 01:13:36;;;;;;;2.92;2.05;;;;;;;;;;514783;28;1602;-74
2024/03/06 01:13:51;;;;;;;2.37;1.87;;;;;;;;;;515134;28;1547;-75
2024/03/06 01:14:06;;;;;;;2.58;1.75;;;;;;;;;;515324;28;1430;-75
2024/03/06 01:14:22;;;;;;;2.63;1.80;;;;;;;;;;514867;28;2058;-76
2024/03/06 01:14:37;;;;;;;2.83;1.90;;;;;;;;;;517257;28;2105;-75
2024/03/06 01:14:52;;;;;;;3.00;1.90;;;;;;;;;;516175;28;1561;-75
2024/03/06 01:15:08;;;;;;;2.83;1.90;;;;;;;;;;518667;28;1259;-75
2024/03/06 01:15:23;;;;;;;3.03;1.90;;;;;;;;;;517581;28;1577;-75
2024/03/06 01:15:38;;;;;;;3.13;2.00;;;;;;;;;;521057;28;1518;-74
2024/03/06 01:15:54;;;;;;;3.30;2.00;;;;;;;;;;520583;28;1667;-75
2024/03/06 01:16:09;;;;;;;3.20;1.90;;;;;;;;;;519114;28;1364;-75
2024/03/06 01:16:25;;;;;;;2.60;1.90;;;;;;;;;;520058;28;1521;-75
2024/03/06 01:16:40;;;;;;;3.07;2.00;;;;;;;;;;517021;28;1479;-75
2024/03/06 01:16:55;;;;;;;3.58;2.00;;;;;;;;;;518496;28;1551;-75
2024/03/06 01:17:11;;;;;;;3.70;2.00;;;;;;;;;;516705;28;1286;-75
2024/03/06 01:17:26;;;;;;;3.45;2.00;;;;;;;;;;515393;28;1438;-75
2024/03/06 01:17:42;;;;;;;3.03;2.00;;;;;;;;;;516479;28;1548;-75
2024/03/06 01:17:57;;;;;;;3.13;2.00;;;;;;;;;;515922;28;1424;-75
2024/03/06 01:18:12;;;;;;;2.87;1.80;;;;;;;;;;517041;28;1238;-76
2024/03/06 01:18:28;;;;;;;2.70;1.83;;;;;;;;;;516232;28;1554;-75
2024/03/06 01:18:44;;;;;;;2.65;1.90;;;;;;;;;;516976;28;1554;-75
2024/03/06 01:18:59;;;;;;;2.65;1.80;;;;;;;;;;517035;28;1528;-76
2024/03/06 01:19:14;;;;;;;2.47;1.73;;;;;;;;;;518710;28;1566;-75
2024/03/06 01:19:30;;;;;;;2.67;1.70;;;;;;;;;;518923;28;1503;-76
2024/03/06 01:19:45;;;;;;;3.15;1.80;;;;;;;;;;518009;28;1527;-76
2024/03/06 01:20:01;;;;;;;2.93;1.93;;;;;;;;;;516904;28;1582;-75
2024/03/06 01:20:16;;;;;;;2.92;2.10;;;;;;;;;;517933;28;1573;-75
2024/03/06 01:20:31;;;;;;;4.00;2.27;;;;;;;;;;518302;28;1641;-75
2024/03/06 01:20:47;;;;;;;3.90;2.10;;;;;;;;;;518242;28;1426;-75
2024/03/06 01:21:03;;;;;;;3.65;2.08;;;;;;;;;;516937;28;1297;-75
2024/03/06 01:21:18;;;;;;;3.60;1.95;;;;;;;;;;518089;28;1486;-75
2024/03/06 01:21:34;;;;;;;3.53;1.80;;;;;;;;;;517363;28;1596;-75
2024/03/06 01:21:49;;;;;;;3.50;1.80;;;;;;;;;;520688;28;1501;-75
2024/03/06 01:22:05;;;;;;;2.63;1.80;;;;;;;;;;520497;28;1565;-75
2024/03/06 01:22:20;;;;;;;3.25;1.85;;;;;;;;;;520944;28;1204;-75
2024/03/06 01:22:36;;;;;;;3.53;1.90;;;;;;;;;;520299;28;1640;-75
2024/03/06 01:22:51;;;;;;;3.42;1.83;;;;;;;;;;519190;28;1487;-75
2024/03/06 01:23:06;;;;;;;3.70;1.83;;;;;;;;;;519767;28;1290;-74
2024/03/06 01:23:22;;;;;;;2.85;1.90;;;;;;;;;;520266;28;1501;-74
2024/03/06 01:23:37;;;;;;;2.33;1.83;;;;;;;;;;519741;28;1242;-75
2024/03/06 01:23:52;;;;;;;3.10;1.83;;;;;;;;;;521022;28;1415;-75
2024/03/06 01:24:07;;;;;;;3.63;2.00;;;;;;;;;;520945;28;1283;-75
2024/03/06 01:24:23;;;;;;;3.13;1.90;;;;;;;;;;520845;28;1500;-76
2024/03/06 01:24:38;;;;;;;3.10;1.80;;;;;;;;;;518766;28;1911;-75
2024/03/06 01:24:54;;;;;;;2.90;1.75;;;;;;;;;;518880;28;1581;-75
2024/03/06 01:25:09;;;;;;;3.13;1.80;;;;;;;;;;519151;28;1167;-76
2024/03/06 01:25:25;;;;;;;3.07;1.90;;;;;;;;;;518314;28;1211;-75
2024/03/06 01:25:40;;;;;;;2.58;1.90;;;;;;;;;;518223;28;1125;-75
2024/03/06 01:25:55;;;;;;;3.92;1.90;;;;;;;;;;517610;28;1317;-75
2024/03/06 01:26:11;;;;;;;4.07;1.80;;;;;;;;;;518823;28;1022;-76
2024/03/06 01:26:26;;;;;;;3.40;1.90;;;;;;;;;;517582;28;972;-75
2024/03/06 01:26:42;;;;;;;3.00;1.77;;;;;;;;;;518646;28;1262;-76
2024/03/06 01:26:57;;;;;;;2.90;1.80;;;;;;;;;;518984;28;1196;-75
2024/03/06 01:27:12;;;;;;;3.40;1.90;;;;;;;;;;520601;28;1062;-75
2024/03/06 01:27:28;;;;;;;3.60;1.88;;;;;;;;;;520879;28;1503;-75
2024/03/06 01:27:43;;;;;;;3.30;1.77;;;;;;;;;;518736;28;1246;-75
2024/03/06 01:27:58;;;;;;;2.60;1.70;;;;;;;;;;521315;28;1213;-75
2024/03/06 01:28:14;;;;;;;2.80;1.80;;;;;;;;;;520337;28;1323;-75
2024/03/06 01:28:29;;;;;;;3.77;1.90;;;;;;;;;;520855;28;1304;-75
2024/03/06 01:28:44;;;;;;;3.13;1.88;;;;;;;;;;520878;28;1178;-76
2024/03/06 01:29:00;;;;;;;2.60;1.70;;;;;;;;;;521249;28;1333;-75
2024/03/06 01:29:15;;;;;;;3.13;1.70;;;;;;;;;;520139;28;1253;-76
2024/03/06 01:29:31;;;;;;;3.60;1.83;;;;;;;;;;518333;28;1018;-75
2024/03/06 01:29:46;;;;;;;3.40;1.90;;;;;;;;;;518655;28;1037;-77
2024/03/06 01:30:02;;;;;;;2.83;2.00;;;;;;;;;;516614;28;1204;-75
2024/03/06 01:30:17;;;;;;;2.80;2.00;;;;;;;;;;513787;28;1242;-76
2024/03/06 01:30:32;;;;;;;2.45;1.88;;;;;;;;;;513368;28;1188;-75
2024/03/06 01:30:48;;;;;;;3.07;1.70;;;;;;;;;;513275;28;1135;-75
2024/03/06 01:31:03;;;;;;;3.83;1.90;;;;;;;;;;515517;28;1154;-75
2024/03/06 01:31:19;;;;;;;2.97;1.90;;;;;;;;;;513614;28;1204;-75
2024/03/06 01:31:34;;;;;;;2.77;1.90;;;;;;;;;;515201;28;776;-75
2024/03/06 01:31:49;;;;;;;3.10;2.07;;;;;;;;;;515586;28;939;-75
2024/03/06 01:32:05;;;;;;;3.05;1.90;;;;;;;;;;515141;28;1037;-75
2024/03/06 01:32:20;;;;;;;2.97;1.70;;;;;;;;;;516911;28;1215;-75
2024/03/06 01:32:37;;;;;;;2.60;1.65;;;;;;;;;;519153;28;1332;-76
2024/03/06 01:32:52;;;;;;;2.45;1.60;;;;;;;;;;519247;28;1387;-75
2024/03/06 01:33:07;;;;;;;2.85;1.70;;;;;;;;;;518310;28;1186;-76
2024/03/06 01:33:23;;;;;;;3.10;1.80;;;;;;;;;;518831;28;847;-75
2024/03/06 01:33:38;;;;;;;3.40;1.70;;;;;;;;;;519316;28;838;-75
2024/03/06 01:33:53;;;;;;;3.80;1.88;;;;;;;;;;519035;28;1384;-75
2024/03/06 01:34:09;;;;;;;2.83;1.80;;;;;;;;;;519525;28;1282;-75
2024/03/06 01:34:25;;;;;;;2.17;1.60;;;;;;;;;;520842;28;1300;-75
2024/03/06 01:34:41;;;;;;;2.42;1.70;;;;;;;;;;519349;28;878;-75
2024/03/06 01:34:56;;;;;;;2.58;1.80;;;;;;;;;;519079;28;1021;-76
2024/03/06 01:35:12;;;;;;;2.70;1.90;;;;;;;;;;517549;28;890;-75
2024/03/06 01:35:27;;;;;;;3.00;1.90;;;;;;;;;;517130;28;932;-75
2024/03/06 01:35:42;;;;;;;3.27;1.83;;;;;;;;;;517109;28;1170;-75
2024/03/06 01:35:58;;;;;;;2.73;1.67;;;;;;;;;;515881;28;1242;-75
2024/03/06 01:36:13;;;;;;;2.65;1.70;;;;;;;;;;516925;28;1213;-75
2024/03/06 01:36:28;;;;;;;3.10;2.00;;;;;;;;;;518997;28;1200;-75